GCFV/FUE METAR and TAF weather

Enter ICAO airport designator
Station Type Date Time Source
GCFV METAR 2019/04/19 22:30 UTC NOAA

GCFV 192230Z AUTO 35014KT 9999 FEW028 18/12 Q1018


Station Type Date Time Source
GCFV Decoded METAR 2019/04/19 22:30 UTC NOAA

Fuerteventura / Aeropuerto, Spain (GCFV) 28-27N 013-52W 30M
Apr 19, 2019 - 06:30 PM EDT / 2019.04.19 2230 UTC
Wind: from the N (350 degrees) at 16 MPH (14 KT):0
Visibility: greater than 7 mile(s):0
Sky conditions: mostly clear
Temperature: 64 F (18 C)
Dew Point: 53 F (12 C)
Relative Humidity: 67%
Pressure (altimeter): 30.06 in. Hg (1018 hPa)
ob: GCFV 192230Z AUTO 35014KT 9999 FEW028 18/12 Q1018
cycle: 22

Station Type Date Time Source
GCFV TAF 2019/04/19 21:27 UTC NOAA

TAF TAF GCFV 192000Z 1921/2021 35013KT 9999 SCT035 TX23/2014Z TN16/2006Z

Example: see airport list